Ozark Regional Airport
KBPK : now visible

Airfield :











YOU CAN JOIN US ON...

 
LOGIN :

Register | Disclaimer

   EN    FR    IT 

 









Legend :    VFR   Marginal VFR   IFR   Intensive IFR   Very Intensive IFR
Visi :
Ceiling :
>= 8 km
>= 3000ft
5 to 8 km
1000 to 3000 ft
1500m to 5 km
500 to 1000 ft
800 to 1500m
200 to 500 ft
< 800m
< 200 ft
Symbols :   Thunderstorms  Fog  Heavy snow  Heavy precipitations  Wind > 20 kt






- Airport Elevation : 928 ft


KBPK - Ozark Regional

EXPIRED METARs :
  • 260253Z AUTO VRB05KT 10SM FEW002 08/07 A2967 RMK AO2 SLP048 T00780072 51020
  • 260249Z AUTO VRB05KT 10SM SCT002 08/07 A2967 RMK AO2
  • 260222Z AUTO 30003KT 7SM BKN003 OVC008 08/08 A2965 RMK AO2 T00830078

TAF KBPK
Valid from the 26 at 04:00 until the 27 at 00:00 UTC


260401Z 2604/2624 VRB03KT P6SM SCT004
FM260600 24008KT 5SM BR BKN008 OVC012
TEMPO 2606/2610 P6SM NSW SCT008
FM261000 27008KT P6SM BKN008
FM261600 30007KT P6SM FEW030
KZME FIR / North America



MET'MAP, your aeronautical weather chart ! - Copyright ORBIFLY December 2007 - Disclaimer

ORBIFLY MET'MAP TEAM :

Programming & Development : Alexandra Zaïnal
Concept & original design : Baudouin d'Aumeries
Assistance for programming : Marc-Olivier Méhu
Technical & hardware support : Manuel Goepfert

Contact : metmap@orbifly.com




SOURCES & CREDITS :

   NOAA       Earth
Advisory